createdAt,value
2023-02-14T00:00:28.710Z,46.30
2023-02-14T00:03:17.043Z,46.30
2023-02-14T00:06:09.140Z,46.30
2023-02-14T00:08:57.331Z,46.30
2023-02-14T00:11:45.997Z,46.30
2023-02-14T00:14:53.222Z,46.30
2023-02-14T00:17:41.504Z,46.30
2023-02-14T00:20:29.883Z,46.30
2023-02-14T00:23:18.267Z,46.30
2023-02-14T00:26:06.632Z,46.30
2023-02-14T00:28:54.968Z,46.20
2023-02-14T00:31:45.451Z,46.20
2023-02-14T00:34:36.585Z,46.10
2023-02-14T00:37:25.200Z,46.10
2023-02-14T00:40:14.009Z,46.10
2023-02-14T00:43:02.178Z,46.10
2023-02-14T00:45:51.053Z,46.10
2023-02-14T00:48:40.838Z,46.10
2023-02-14T00:51:29.644Z,46.10
2023-02-14T00:54:17.827Z,46.10
2023-02-14T00:57:06.143Z,46.10
2023-02-14T00:59:54.464Z,46.10
2023-02-14T01:02:42.719Z,46.10
2023-02-14T01:05:32.376Z,46.00
2023-02-14T01:08:21.143Z,46.00
2023-02-14T01:11:13.144Z,46.00
2023-02-14T01:14:01.721Z,46.10
2023-02-14T01:16:49.993Z,46.10
2023-02-14T01:19:38.755Z,46.10
2023-02-14T01:22:28.585Z,46.10
2023-02-14T01:25:17.073Z,46.70
2023-02-14T01:28:08.437Z,50.30
2023-02-14T01:30:56.718Z,49.10
2023-02-14T01:33:46.938Z,48.40
2023-02-14T01:36:37.961Z,48.20
2023-02-14T01:39:28.118Z,48.00
2023-02-14T01:42:16.303Z,47.80
2023-02-14T01:45:08.945Z,47.80
2023-02-14T01:47:58.779Z,47.70
2023-02-14T01:50:50.649Z,47.50
2023-02-14T01:53:39.016Z,47.40
2023-02-14T01:56:33.953Z,47.40
2023-02-14T01:59:26.081Z,47.20
2023-02-14T02:02:14.603Z,47.10
2023-02-14T02:05:02.869Z,47.10
2023-02-14T02:07:52.362Z,47.00
2023-02-14T02:10:40.544Z,47.00
2023-02-14T02:13:30.157Z,47.00
2023-02-14T02:16:48.440Z,46.90
2023-02-14T02:20:19.870Z,46.90
2023-02-14T02:23:42.189Z,46.80
2023-02-14T02:27:00.781Z,46.80
2023-02-14T02:30:33.182Z,46.70
2023-02-14T02:33:59.002Z,46.60
2023-02-14T02:37:03.581Z,46.60
2023-02-14T02:40:04.845Z,46.60
2023-02-14T02:43:03.445Z,46.70
2023-02-14T02:46:13.340Z,46.60
2023-02-14T02:49:07.844Z,46.60
2023-02-14T02:52:17.359Z,46.50
2023-02-14T02:55:12.979Z,46.50
2023-02-14T02:58:00.729Z,46.30
2023-02-14T03:00:51.100Z,46.30
2023-02-14T03:03:58.106Z,46.30
2023-02-14T03:06:47.112Z,46.30
2023-02-14T03:09:57.631Z,46.30
2023-02-14T03:13:24.645Z,46.30
2023-02-14T03:16:35.492Z,46.30
2023-02-14T03:20:08.818Z,46.20
2023-02-14T03:23:06.965Z,46.20
2023-02-14T03:26:06.221Z,46.20
2023-02-14T03:29:02.606Z,46.20
2023-02-14T03:31:59.698Z,46.20
2023-02-14T03:34:55.454Z,46.20
2023-02-14T03:37:48.496Z,46.20
2023-02-14T03:40:41.458Z,46.20
2023-02-14T03:43:32.854Z,46.20
2023-02-14T03:46:28.653Z,46.20
2023-02-14T03:49:21.168Z,46.10
2023-02-14T03:52:11.879Z,46.20
2023-02-14T03:55:02.438Z,46.00
2023-02-14T03:57:55.614Z,46.00
2023-02-14T04:00:47.796Z,46.00
2023-02-14T04:03:40.747Z,45.90
2023-02-14T04:06:29.476Z,46.00
2023-02-14T04:09:17.726Z,46.00
2023-02-14T04:12:06.276Z,46.00
2023-02-14T04:14:54.496Z,46.00
2023-02-14T04:18:00.251Z,45.90
2023-02-14T04:20:49.932Z,45.90
2023-02-14T04:23:38.243Z,45.80
2023-02-14T04:26:26.554Z,45.80
2023-02-14T04:29:14.982Z,45.80
2023-02-14T04:32:03.299Z,45.80
2023-02-14T04:34:51.682Z,45.80
2023-02-14T04:37:41.412Z,45.80
2023-02-14T04:40:29.633Z,45.80
2023-02-14T04:43:18.273Z,45.80
2023-02-14T04:46:06.586Z,45.80
2023-02-14T04:48:54.952Z,45.80
2023-02-14T04:51:43.716Z,45.70
2023-02-14T04:54:33.985Z,45.70
2023-02-14T04:57:22.460Z,45.70
2023-02-14T05:00:12.054Z,45.70
2023-02-14T05:03:00.701Z,45.70
2023-02-14T05:05:48.998Z,45.70
2023-02-14T05:08:37.332Z,45.70
2023-02-14T05:11:27.676Z,45.60
2023-02-14T05:14:15.825Z,45.60
2023-02-14T05:17:04.425Z,45.60
2023-02-14T05:19:52.671Z,45.60
2023-02-14T05:22:40.859Z,45.60
2023-02-14T05:25:29.555Z,45.60
2023-02-14T05:28:19.945Z,45.50
2023-02-14T05:31:08.566Z,45.60
2023-02-14T05:33:58.906Z,45.60
2023-02-14T05:36:47.711Z,45.60
2023-02-14T05:39:36.106Z,45.40
2023-02-14T05:42:24.502Z,45.50
2023-02-14T05:45:14.719Z,45.50
2023-02-14T05:48:06.946Z,45.40
2023-02-14T05:50:55.764Z,45.40
2023-02-14T05:53:44.525Z,45.40
2023-02-14T05:56:32.929Z,45.40
2023-02-14T05:59:21.347Z,45.40
2023-02-14T06:02:11.911Z,45.50
2023-02-14T06:05:00.360Z,45.50
2023-02-14T06:07:51.352Z,45.50
2023-02-14T06:10:39.774Z,45.50
2023-02-14T06:13:28.028Z,45.50
2023-02-14T06:16:16.494Z,45.40
2023-02-14T06:19:06.179Z,45.40
2023-02-14T06:21:54.426Z,45.40
2023-02-14T06:24:42.816Z,45.40
2023-02-14T06:27:31.451Z,45.40
2023-02-14T06:30:20.159Z,45.40
2023-02-14T06:33:08.395Z,45.40
2023-02-14T06:35:57.974Z,45.40
2023-02-14T06:38:47.937Z,45.40
2023-02-14T06:41:36.182Z,45.40
2023-02-14T06:44:24.375Z,45.30
2023-02-14T06:47:12.563Z,45.30
2023-02-14T06:50:01.607Z,45.30
2023-02-14T06:52:51.628Z,45.40
2023-02-14T06:55:40.507Z,45.40
2023-02-14T06:58:29.484Z,45.40
2023-02-14T07:01:17.771Z,45.40
2023-02-14T07:04:06.293Z,45.30
2023-02-14T07:06:54.645Z,45.30
2023-02-14T07:09:44.181Z,45.30
2023-02-14T07:12:32.554Z,45.30
2023-02-14T07:15:21.105Z,45.20
2023-02-14T07:18:10.683Z,45.20
2023-02-14T07:20:59.205Z,45.20
2023-02-14T07:23:50.104Z,45.20
2023-02-14T07:26:39.825Z,45.30
2023-02-14T07:29:28.048Z,45.20
2023-02-14T07:32:16.425Z,45.10
2023-02-14T07:35:04.939Z,45.10
2023-02-14T07:37:53.086Z,45.10
2023-02-14T07:40:41.358Z,45.10
2023-02-14T07:43:31.052Z,45.10
2023-02-14T07:46:19.776Z,45.10
2023-02-14T07:49:08.408Z,45.10
2023-02-14T07:51:56.809Z,45.10
2023-02-14T07:54:48.384Z,45.10
2023-02-14T07:57:36.764Z,45.10
2023-02-14T08:00:26.657Z,45.00
2023-02-14T08:03:15.624Z,45.00
2023-02-14T08:06:04.060Z,45.00
2023-02-14T08:08:52.233Z,44.90
2023-02-14T08:11:57.975Z,44.90
2023-02-14T08:14:46.466Z,44.90
2023-02-14T08:17:36.711Z,44.90
2023-02-14T08:20:25.020Z,44.90
2023-02-14T08:23:13.604Z,44.90
2023-02-14T08:26:02.391Z,44.80
2023-02-14T08:28:50.725Z,44.80
2023-02-14T08:31:39.350Z,44.80
2023-02-14T08:34:29.270Z,44.70
2023-02-14T08:37:17.609Z,44.60
2023-02-14T08:40:06.720Z,44.60
2023-02-14T08:42:57.107Z,44.60
2023-02-14T08:45:45.952Z,44.60
2023-02-14T08:48:39.067Z,44.60
2023-02-14T08:51:28.898Z,44.60
2023-02-14T08:54:17.174Z,44.60
2023-02-14T08:57:05.418Z,44.60
2023-02-14T08:59:53.617Z,44.60
2023-02-14T09:02:41.971Z,44.50
2023-02-14T09:05:31.881Z,44.40
2023-02-14T09:08:21.911Z,44.40
2023-02-14T09:11:11.427Z,44.40
2023-02-14T09:14:00.140Z,44.40
2023-02-14T09:16:48.596Z,44.40
2023-02-14T09:19:38.545Z,44.40
2023-02-14T09:22:26.898Z,44.40
2023-02-14T09:25:18.509Z,44.40
2023-02-14T09:28:06.885Z,44.40
2023-02-14T09:30:55.184Z,44.30
2023-02-14T09:34:01.594Z,44.30
2023-02-14T09:36:50.220Z,44.30
2023-02-14T09:39:39.200Z,44.30
2023-02-14T09:42:42.959Z,44.30
2023-02-14T09:45:33.477Z,44.20
2023-02-14T09:48:29.728Z,44.20
2023-02-14T09:51:21.065Z,44.20
2023-02-14T09:54:14.093Z,44.20
2023-02-14T09:57:07.044Z,44.20
2023-02-14T10:00:02.795Z,44.10
2023-02-14T10:03:00.364Z,44.00
2023-02-14T10:05:56.536Z,44.00
2023-02-14T10:08:59.377Z,43.90
2023-02-14T10:11:50.092Z,43.90
2023-02-14T10:14:41.038Z,44.00
2023-02-14T10:17:40.592Z,43.90
2023-02-14T10:20:34.801Z,43.90
2023-02-14T10:23:36.329Z,43.90
2023-02-14T10:26:30.993Z,43.80
2023-02-14T10:29:20.854Z,43.80
2023-02-14T10:32:14.491Z,43.70
2023-02-14T10:35:12.942Z,43.70
2023-02-14T10:38:10.984Z,43.70
2023-02-14T10:41:15.223Z,43.70
2023-02-14T10:44:21.246Z,43.60
2023-02-14T10:47:22.171Z,43.60
2023-02-14T10:50:20.475Z,43.70
2023-02-14T10:53:19.227Z,43.70
2023-02-14T10:56:13.396Z,43.60
2023-02-14T10:59:13.151Z,43.60
2023-02-14T11:02:02.512Z,43.40
2023-02-14T11:04:51.776Z,43.40
2023-02-14T11:07:41.378Z,43.40
2023-02-14T11:10:35.819Z,43.50
2023-02-14T11:13:30.186Z,43.50
2023-02-14T11:16:31.626Z,43.50
2023-02-14T11:19:26.049Z,43.40
2023-02-14T11:22:31.040Z,43.40
2023-02-14T11:25:23.874Z,43.30
2023-02-14T11:28:17.061Z,43.20
2023-02-14T11:31:05.583Z,43.00
2023-02-14T11:33:54.448Z,42.90
2023-02-14T11:36:43.307Z,43.10
2023-02-14T11:39:33.117Z,43.10
2023-02-14T11:42:38.652Z,43.00
2023-02-14T11:45:36.699Z,43.00
2023-02-14T11:48:39.706Z,43.00
2023-02-14T11:51:34.254Z,42.90
2023-02-14T11:54:31.678Z,42.90
2023-02-14T11:57:27.690Z,42.60
2023-02-14T12:00:20.088Z,42.60
2023-02-14T12:03:09.259Z,42.70
2023-02-14T12:06:00.733Z,42.70
2023-02-14T12:08:49.154Z,42.80
2023-02-14T12:11:37.507Z,42.90
2023-02-14T12:14:30.628Z,42.90
2023-02-14T12:17:29.544Z,42.90
2023-02-14T12:20:24.021Z,42.90
2023-02-14T12:23:18.022Z,42.80
2023-02-14T12:26:18.914Z,42.80
2023-02-14T12:29:15.637Z,42.70
2023-02-14T12:32:13.122Z,42.70
2023-02-14T12:35:14.556Z,42.50
2023-02-14T12:38:10.712Z,42.60
2023-02-14T12:41:10.315Z,42.70
2023-02-14T12:44:04.250Z,42.50
2023-02-14T12:47:06.105Z,42.40
2023-02-14T12:50:21.456Z,42.20
2023-02-14T12:53:33.411Z,42.20
2023-02-14T12:56:37.154Z,42.40
2023-02-14T12:59:33.272Z,42.40
2023-02-14T13:02:48.006Z,42.50
2023-02-14T13:05:49.125Z,42.20
2023-02-14T13:09:01.403Z,42.40
2023-02-14T13:12:00.479Z,42.50
2023-02-14T13:14:59.126Z,42.40
2023-02-14T13:17:53.502Z,42.10
2023-02-14T13:20:50.401Z,42.20
2023-02-14T13:23:41.627Z,42.30
2023-02-14T13:26:35.435Z,42.20
2023-02-14T13:29:25.892Z,42.10
2023-02-14T13:32:18.100Z,42.00
2023-02-14T13:35:09.099Z,42.30
2023-02-14T13:38:03.018Z,42.30
2023-02-14T13:40:52.448Z,42.40
2023-02-14T13:43:57.396Z,42.40
2023-02-14T13:46:54.977Z,42.20
2023-02-14T13:49:49.629Z,42.30
2023-02-14T13:52:46.789Z,42.40
2023-02-14T13:55:38.272Z,42.40
2023-02-14T13:58:27.314Z,42.40
2023-02-14T14:01:34.362Z,42.40
2023-02-14T14:04:38.478Z,42.10
2023-02-14T14:07:30.790Z,41.90
2023-02-14T14:10:45.866Z,42.30
2023-02-14T14:13:57.391Z,42.20
2023-02-14T14:16:58.615Z,42.40
2023-02-14T14:19:47.708Z,42.40
2023-02-14T14:22:47.865Z,42.30
2023-02-14T14:25:39.638Z,42.30
2023-02-14T14:28:33.131Z,42.40
2023-02-14T14:31:22.220Z,42.40
2023-02-14T14:34:18.416Z,42.50
2023-02-14T14:37:16.606Z,42.30
2023-02-14T14:40:08.341Z,42.40
2023-02-14T14:43:00.765Z,42.40
2023-02-14T14:45:53.380Z,42.50
2023-02-14T14:48:45.618Z,42.40
2023-02-14T14:51:36.823Z,42.50
2023-02-14T14:54:27.764Z,42.50
2023-02-14T14:57:19.378Z,42.50
2023-02-14T15:00:24.302Z,42.40
2023-02-14T15:03:18.536Z,42.50
2023-02-14T15:06:15.732Z,42.60
2023-02-14T15:09:14.424Z,42.50
2023-02-14T15:12:21.541Z,42.50
2023-02-14T15:15:13.816Z,42.50
2023-02-14T15:18:07.891Z,42.60
2023-02-14T15:20:57.862Z,42.50
2023-02-14T15:23:47.372Z,42.50
2023-02-14T15:26:37.466Z,42.70
2023-02-14T15:29:28.718Z,42.80
2023-02-14T15:32:17.052Z,42.80
2023-02-14T15:35:07.753Z,42.70
2023-02-14T15:38:02.062Z,42.70
2023-02-14T15:40:51.795Z,42.70
2023-02-14T15:43:40.992Z,42.80
2023-02-14T15:46:36.178Z,42.90
2023-02-14T15:49:31.112Z,42.90
2023-02-14T15:52:19.640Z,42.90
2023-02-14T15:55:11.882Z,44.70
2023-02-14T15:58:03.885Z,44.00
2023-02-14T16:00:54.289Z,43.90
2023-02-14T16:03:50.624Z,43.90
2023-02-14T16:06:40.553Z,43.90
2023-02-14T16:09:31.270Z,43.90
2023-02-14T16:12:32.330Z,43.80
2023-02-14T16:15:22.519Z,43.90
2023-02-14T16:18:19.528Z,43.80
2023-02-14T16:21:16.570Z,43.60
2023-02-14T16:24:14.367Z,43.60
2023-02-14T16:27:07.069Z,43.70
2023-02-14T16:29:56.722Z,43.80
2023-02-14T16:32:50.201Z,43.80
2023-02-14T16:35:38.500Z,43.90
2023-02-14T16:38:27.112Z,43.80
2023-02-14T16:41:18.872Z,43.90
2023-02-14T16:44:07.215Z,43.90
2023-02-14T16:46:56.946Z,43.80
2023-02-14T16:49:45.512Z,43.70
2023-02-14T16:52:33.788Z,43.70
2023-02-14T16:55:21.968Z,43.80
2023-02-14T16:58:10.463Z,43.80
2023-02-14T17:00:59.469Z,43.80
2023-02-14T17:03:49.222Z,43.90
2023-02-14T17:06:41.181Z,43.90
2023-02-14T17:09:39.307Z,43.90
2023-02-14T17:12:31.575Z,43.90
2023-02-14T17:15:24.681Z,43.90
2023-02-14T17:18:16.593Z,43.80
2023-02-14T17:21:06.834Z,43.90
2023-02-14T17:23:56.795Z,43.90
2023-02-14T17:26:45.610Z,43.90
2023-02-14T17:29:33.997Z,43.90
2023-02-14T17:32:22.323Z,43.90
2023-02-14T17:35:12.030Z,43.90
2023-02-14T17:38:02.004Z,43.90
2023-02-14T17:40:50.204Z,43.80
2023-02-14T17:43:38.433Z,43.70
2023-02-14T17:46:27.363Z,43.80
2023-02-14T17:49:15.650Z,43.80
2023-02-14T17:52:04.162Z,43.90
2023-02-14T17:54:53.948Z,43.80
2023-02-14T17:57:42.624Z,43.80
2023-02-14T18:00:30.861Z,42.30
2023-02-14T18:03:20.391Z,43.70
2023-02-14T18:06:11.309Z,46.20
2023-02-14T18:08:59.651Z,46.00
2023-02-14T18:11:50.491Z,48.90
2023-02-14T18:14:38.936Z,48.20
2023-02-14T18:17:27.142Z,47.40
2023-02-14T18:20:15.560Z,48.50
2023-02-14T18:23:07.179Z,49.00
2023-02-14T18:25:57.979Z,50.70
2023-02-14T18:28:48.002Z,50.30
2023-02-14T18:31:37.847Z,49.60
2023-02-14T18:34:26.129Z,48.90
2023-02-14T18:37:14.705Z,48.40
2023-02-14T18:40:03.009Z,48.10
2023-02-14T18:42:51.387Z,47.60
2023-02-14T18:45:41.613Z,47.30
2023-02-14T18:48:30.919Z,47.10
2023-02-14T18:51:21.654Z,46.80
2023-02-14T18:54:09.887Z,46.60
2023-02-14T18:56:58.190Z,46.60
2023-02-14T18:59:47.364Z,46.30
2023-02-14T19:02:38.406Z,46.10
2023-02-14T19:05:27.092Z,46.00
2023-02-14T19:08:15.589Z,45.80
2023-02-14T19:11:11.327Z,45.70
2023-02-14T19:14:01.351Z,45.70
2023-02-14T19:16:53.406Z,45.50
2023-02-14T19:19:43.223Z,45.50
2023-02-14T19:22:31.432Z,45.50
2023-02-14T19:25:19.841Z,45.40
2023-02-14T19:28:08.322Z,45.40
2023-02-14T19:31:00.456Z,45.30
2023-02-14T19:33:49.255Z,45.30
2023-02-14T19:36:38.812Z,45.20
2023-02-14T19:39:29.531Z,45.10
2023-02-14T19:42:17.848Z,45.10
2023-02-14T19:45:07.672Z,45.10
2023-02-14T19:47:56.011Z,45.00
2023-02-14T19:50:44.603Z,45.10
2023-02-14T19:53:35.257Z,45.00
2023-02-14T19:56:25.908Z,45.00
2023-02-14T19:59:19.950Z,44.90
2023-02-14T20:02:15.098Z,44.90
2023-02-14T20:05:04.460Z,44.90
2023-02-14T20:07:55.429Z,46.10
2023-02-14T20:10:45.083Z,48.70
2023-02-14T20:13:33.315Z,49.30
2023-02-14T20:16:21.772Z,49.50
2023-02-14T20:19:12.858Z,49.80
2023-02-14T20:22:01.488Z,49.80
2023-02-14T20:24:50.039Z,49.50
2023-02-14T20:27:40.102Z,49.30
2023-02-14T20:30:28.593Z,49.40
2023-02-14T20:33:16.894Z,49.80
2023-02-14T20:36:06.318Z,49.40
2023-02-14T20:38:56.604Z,49.80
2023-02-14T20:41:49.803Z,49.40
2023-02-14T20:44:39.524Z,49.40
2023-02-14T20:47:28.693Z,49.40
2023-02-14T20:50:17.242Z,49.50
2023-02-14T20:53:05.436Z,49.30
2023-02-14T20:55:54.563Z,49.20
2023-02-14T20:58:43.713Z,49.30
2023-02-14T21:01:33.555Z,49.40
2023-02-14T21:04:21.811Z,49.50
2023-02-14T21:07:10.544Z,49.40
2023-02-14T21:09:58.776Z,49.50
2023-02-14T21:12:48.453Z,49.60
2023-02-14T21:15:36.675Z,49.80
2023-02-14T21:18:26.393Z,49.70
2023-02-14T21:21:16.457Z,49.40
2023-02-14T21:24:07.984Z,49.30
2023-02-14T21:26:56.357Z,49.40
2023-02-14T21:29:44.540Z,49.30
2023-02-14T21:32:32.869Z,49.30
2023-02-14T21:35:22.520Z,49.50
2023-02-14T21:38:10.842Z,49.00
2023-02-14T21:41:04.863Z,49.20
2023-02-14T21:43:55.024Z,49.20
2023-02-14T21:46:43.417Z,49.20
2023-02-14T21:49:49.048Z,49.10
2023-02-14T21:52:38.712Z,48.80
2023-02-14T21:55:27.078Z,48.60
2023-02-14T21:58:15.325Z,48.80
2023-02-14T22:01:03.513Z,48.70
2023-02-14T22:03:52.065Z,48.70
2023-02-14T22:06:41.688Z,48.70
2023-02-14T22:09:31.643Z,48.60
2023-02-14T22:12:19.828Z,48.60
2023-02-14T22:15:08.714Z,48.20
2023-02-14T22:17:56.957Z,47.90
2023-02-14T22:20:46.148Z,47.90
2023-02-14T22:23:35.838Z,47.50
2023-02-14T22:26:27.361Z,47.60
2023-02-14T22:29:15.575Z,47.50
2023-02-14T22:32:03.933Z,47.50
2023-02-14T22:34:52.285Z,47.50
2023-02-14T22:37:40.569Z,47.40
2023-02-14T22:40:28.814Z,47.30
2023-02-14T22:43:19.384Z,47.30
2023-02-14T22:46:09.796Z,47.20
2023-02-14T22:48:58.711Z,47.30
2023-02-14T22:51:47.150Z,47.30
2023-02-14T22:54:35.517Z,47.30
2023-02-14T22:57:23.982Z,47.30
2023-02-14T23:00:14.727Z,47.30
2023-02-14T23:03:02.973Z,47.30
2023-02-14T23:05:57.298Z,47.10
2023-02-14T23:08:46.819Z,47.20
2023-02-14T23:11:36.706Z,47.20
2023-02-14T23:14:42.648Z,47.20
2023-02-14T23:17:49.617Z,47.20
2023-02-14T23:20:55.253Z,47.10
2023-02-14T23:23:43.633Z,47.00
2023-02-14T23:26:31.903Z,47.00
2023-02-14T23:29:20.244Z,47.00
2023-02-14T23:32:09.676Z,46.90
2023-02-14T23:34:59.768Z,46.80
2023-02-14T23:37:48.191Z,46.80
2023-02-14T23:40:56.437Z,46.80
2023-02-14T23:43:44.809Z,46.90
2023-02-14T23:46:33.174Z,46.90
2023-02-14T23:49:22.350Z,46.80
2023-02-14T23:52:13.521Z,46.80
2023-02-14T23:55:01.699Z,46.80
2023-02-14T23:57:50.086Z,46.70
